1NE1 weather

Paul Ridder Ranch Airport
Callaway, Nebraska, United States

Public forecast

Using degrees Fahrenheit for public forecast. Weather courtesy of forecast.io.

Closest aviation weather report (METAR) to Paul Ridder Ranch Airport

Closest report is Broken Bow Municipal Airport, 20.6 nm (38.1 km) ENE. Retrieved 2019/10/22 19:53 UTC (31 minutes ago):

KBBW 221953Z AUTO 29019G28KT 250V310 10SM BKN075 16/M04 A2993 RMK AO2 PK WND 29031/1939 SLP134 T01561039

Closest aviation forecast (TAF) to Paul Ridder Ranch Airport

Closest forecast is North Platte Regional Airport Lee Bird Field, 30.2 nm (55.8 km) WSW. Retrieved 2019/10/22 18:33 UTC (2 hours ago):

TAF KLBF 221730Z 2218/2318 30015G23KT P6SM SCT100 FM230000 27005KT P6SM SCT120 FM231200 30006KT P6SM SCT200 FM231500 31013G20KT P6SM SCT250